Time;durP1;ratioP1;P1;durP2;ratioP2;P2;SDS_P1;SDS_P2;PMS_P1;PMS_P2;Temp;Humidity;BMP_temperature;BMP_pressure;BME280_temperature;BME280_humidity;BME280_pressure;Samples;Min_cycle;Max_cycle;Signal;HPM_P1;HPM_P2
2022/12/20 00:23:41;;;;;;;13.77;5.45;;;;;;;-0.96;68.45;100759.63;5081206;23;20061;-92
2022/12/20 00:39:17;;;;;;;7.90;4.10;;;;;;;-1.73;68.63;100671.38;4895980;23;20074;-91
2022/12/20 02:57:29;;;;;;;22.20;8.77;;;;;;;-2.14;66.16;100643.53;4921046;23;20052;-90
2022/12/20 05:13:57;;;;;;;35.45;12.48;;;;;;;-4.17;60.04;100461.41;5004202;23;20060;-92
2022/12/20 05:16:41;;;;;;;36.33;14.18;;;;;;;-3.79;60.03;100515.41;4889780;29;20127;-92
2022/12/20 05:30:56;;;;;;;24.27;9.32;;;;;;;-4.53;59.56;100378.66;5531621;23;20060;-94
2022/12/20 06:55:06;;;;;;;14.68;5.63;;;;;;;-4.28;57.83;100417.31;4870355;29;20072;-92
2022/12/20 06:57:51;;;;;;;12.35;5.32;;;;;;;-4.20;57.57;100412.91;4809961;29;20037;-93
2022/12/20 07:38:14;;;;;;;16.00;5.38;;;;;;;-4.99;58.46;100299.75;5269641;23;19908;-91
2022/12/20 07:41:18;;;;;;;14.85;5.82;;;;;;;-5.32;58.25;100237.22;4834281;29;20049;-92
2022/12/20 07:52:55;;;;;;;12.48;5.40;;;;;;;-5.16;58.01;100250.34;5248995;23;20052;-92
2022/12/20 08:03:37;;;;;;;12.57;5.22;;;;;;;-4.70;57.85;100246.50;5051869;23;20096;-92
2022/12/20 10:57:41;;;;;;;12.75;4.90;;;;;;;-3.33;53.63;99877.94;4857625;29;20222;-91
2022/12/20 12:29:44;;;;;;;12.55;4.90;;;;;;;-4.69;55.79;99808.03;5444552;23;20060;-93
2022/12/20 12:33:20;;;;;;;12.43;4.03;;;;;;;-4.10;55.83;99869.53;4881253;29;20040;-92
2022/12/20 12:39:20;;;;;;;13.85;4.88;;;;;;;-4.11;55.60;99864.38;4984687;23;20532;-93
2022/12/20 12:42:25;;;;;;;21.42;6.22;;;;;;;-4.23;56.27;99868.69;4869201;29;20072;-93
2022/12/20 12:45:19;;;;;;;32.67;11.47;;;;;;;-4.52;56.00;99831.47;4869842;29;20068;-93
2022/12/20 12:48:00;;;;;;;29.45;11.23;;;;;;;-4.54;55.96;99827.34;4865464;29;20100;-91
2022/12/20 12:50:35;;;;;;;20.92;8.13;;;;;;;-4.18;56.32;99879.56;4879575;29;20472;-92
2022/12/20 12:53:14;;;;;;;18.67;8.95;;;;;;;-4.20;56.21;99876.28;4896992;29;20044;-92
2022/12/20 12:56:33;;;;;;;19.83;9.43;;;;;;;-4.17;56.39;99875.88;4866990;29;20095;-92
2022/12/20 12:59:31;;;;;;;13.75;5.72;;;;;;;-4.20;56.42;99874.44;4852518;29;20569;-92
2022/12/20 13:17:18;;;;;;;14.18;6.15;;;;;;;-4.06;56.23;99867.28;1669573;23;20304;-88
2022/12/20 13:23:33;;;;;;;13.07;5.38;;;;;;;-3.99;56.27;99861.94;4856284;23;20113;-93
2022/12/20 13:30:25;;;;;;;22.27;8.07;;;;;;;-4.66;57.11;99748.97;5078474;23;20020;-91
2022/12/20 14:50:36;;;;;;;14.75;7.25;;;;;;;-4.10;57.34;99757.41;4911022;29;20071;-91
2022/12/20 14:53:23;;;;;;;22.10;9.23;;;;;;;-4.45;57.25;99723.94;4840979;29;20108;-92
2022/12/20 16:49:25;;;;;;;24.25;8.73;;;;;;;-4.23;59.38;99831.31;5725991;23;20056;-88
2022/12/20 18:23:22;;;;;;;29.38;12.60;;;;;;;-4.90;58.89;99721.00;2971890;23;20306;31
2022/12/20 18:37:28;;;;;;;85.80;30.13;;;;;;;-4.52;58.53;99745.28;4907304;29;20064;-89
2022/12/20 18:40:12;;;;;;;48.55;20.33;;;;;;;-3.94;58.02;99819.41;4876576;23;20067;-88
2022/12/20 18:42:54;;;;;;;38.97;15.10;;;;;;;-4.34;57.90;99785.53;4871009;29;20083;-90
2022/12/20 21:08:11;;;;;;;31.45;11.13;;;;;;;-1.92;57.34;99836.88;3809478;23;20314;-89
2022/12/20 21:10:43;;;;;;;25.42;10.32;;;;;;;-2.53;57.36;99744.66;4852697;29;20049;-91
2022/12/20 21:13:10;;;;;;;20.45;9.63;;;;;;;-2.26;57.53;99769.34;4868749;29;20049;-90
2022/12/20 21:15:38;;;;;;;26.83;10.73;;;;;;;-2.32;57.18;99756.03;4861188;29;20044;-91
2022/12/20 21:18:04;;;;;;;32.55;11.05;;;;;;;-2.30;56.95;99773.53;4863579;29;20038;-91
2022/12/20 21:20:37;;;;;;;22.88;10.30;;;;;;;-2.09;56.91;99795.59;4848190;29;20049;-90
2022/12/20 21:23:45;;;;;;;25.75;10.23;;;;;;;-2.31;57.70;99806.69;4880540;29;20085;-92
2022/12/20 21:26:18;;;;;;;24.48;11.25;;;;;;;-2.57;57.69;99766.72;4843810;29;20045;-93
2022/12/20 21:28:56;;;;;;;25.90;10.20;;;;;;;-2.10;57.72;99844.88;4829279;29;20282;-91
2022/12/20 21:31:23;;;;;;;25.27;11.05;;;;;;;-2.65;57.46;99762.44;4834023;29;20049;-91
2022/12/20 21:34:15;;;;;;;29.50;11.15;;;;;;;-2.54;57.49;99779.66;4855662;29;20053;-90
2022/12/20 21:36:41;;;;;;;22.80;10.88;;;;;;;-2.60;58.09;99792.88;4850955;29;20499;-91
2022/12/20 21:39:11;;;;;;;26.27;11.05;;;;;;;-2.70;58.11;99773.78;4853147;29;20045;-90
2022/12/20 21:41:38;;;;;;;23.75;10.77;;;;;;;-1.96;57.27;99847.22;4853735;29;20065;-90
2022/12/20 21:44:04;;;;;;;28.73;11.35;;;;;;;-1.83;57.07;99834.75;4870875;29;20073;-91
2022/12/20 21:46:32;;;;;;;25.25;10.57;;;;;;;-1.99;56.83;99809.31;4870786;29;20048;-91
2022/12/20 21:48:59;;;;;;;24.08;10.45;;;;;;;-2.25;57.12;99775.53;4834002;29;20077;-91
2022/12/20 21:51:28;;;;;;;26.92;11.00;;;;;;;-2.09;57.07;99784.88;4845438;29;20101;-91
2022/12/20 21:53:56;;;;;;;28.00;11.07;;;;;;;-2.16;56.62;99761.66;4860629;29;20085;-91
2022/12/20 21:56:27;;;;;;;26.27;10.93;;;;;;;-1.59;56.41;99835.78;4854007;29;20037;-90
2022/12/20 21:58:54;;;;;;;25.70;11.48;;;;;;;-1.92;56.53;99796.69;4852007;29;20044;-91
2022/12/20 22:01:28;;;;;;;25.13;11.98;;;;;;;-1.57;56.69;99823.78;4854956;29;20080;-91
2022/12/20 22:04:06;;;;;;;26.98;10.77;;;;;;;-1.76;56.21;99822.94;5082715;24;20076;-90
2022/12/20 22:06:34;;;;;;;27.15;11.45;;;;;;;-2.06;56.74;99765.69;4888345;29;20023;-89
2022/12/20 22:09:01;;;;;;;26.08;11.80;;;;;;;-1.93;56.47;99761.03;4887084;29;20183;-90
2022/12/20 22:11:27;;;;;;;29.00;11.82;;;;;;;-1.67;56.55;99788.63;4883814;29;20053;-90
2022/12/20 22:13:57;;;;;;;29.20;11.13;;;;;;;-1.67;56.58;99788.63;4920415;29;20046;-90
2022/12/20 22:16:25;;;;;;;30.08;11.80;;;;;;;-1.93;56.19;99747.66;4882189;29;20052;-90
2022/12/20 22:18:53;;;;;;;27.42;11.40;;;;;;;-1.63;56.29;99823.84;4920641;29;20048;-89
2022/12/20 22:21:24;;;;;;;33.70;12.38;;;;;;;-1.75;56.55;99783.56;4883808;29;20045;-90
2022/12/20 22:23:52;;;;;;;27.88;11.82;;;;;;;-1.98;56.70;99771.63;4880222;29;20138;-89
2022/12/20 22:26:20;;;;;;;31.55;12.60;;;;;;;-1.90;57.13;99768.63;4874717;29;20068;-90
2022/12/20 22:28:51;;;;;;;22.67;10.70;;;;;;;-2.08;56.48;99743.69;4866014;29;20578;-89
2022/12/20 22:31:18;;;;;;;26.20;11.18;;;;;;;-1.98;57.41;99794.91;4877554;29;20502;-89
2022/12/20 22:33:44;;;;;;;29.27;11.07;;;;;;;-1.91;57.76;99809.88;4867369;29;20407;-90
2022/12/20 22:36:13;;;;;;;24.52;11.23;;;;;;;-1.92;57.73;99796.69;4884108;29;20041;-89
2022/12/20 22:38:43;;;;;;;29.88;11.95;;;;;;;-1.74;58.00;99818.19;4870308;29;20079;-90
2022/12/20 22:41:15;;;;;;;27.25;11.25;;;;;;;-2.24;57.86;99724.44;4869179;29;20297;-89
2022/12/20 22:43:44;;;;;;;28.05;11.57;;;;;;;-1.64;57.51;99806.97;4881434;29;20036;-90
2022/12/20 22:46:11;;;;;;;25.77;11.43;;;;;;;-1.53;57.64;99818.81;4887075;29;20040;-87
2022/12/20 22:48:38;;;;;;;30.33;11.00;;;;;;;-2.13;57.75;99761.22;4865412;29;20051;-90
2022/12/20 22:51:05;;;;;;;;;;;;;;;-1.60;57.87;99818.06;4855502;29;20048;-88
2022/12/20 22:53:33;;;;;;;25.58;10.48;;;;;;;-1.89;58.02;99785.53;4881796;29;20339;-89
2022/12/20 22:56:00;;;;;;;26.52;11.27;;;;;;;-2.25;58.25;99712.09;4881688;29;20040;-89
2022/12/20 22:58:28;;;;;;;33.65;12.20;;;;;;;-1.79;58.29;99753.69;4883358;29;20041;-89
2022/12/20 23:00:56;;;;;;;28.95;12.20;;;;;;;-1.77;57.69;99735.53;4855749;29;20120;-90
2022/12/20 23:03:23;;;;;;;27.92;12.25;;;;;;;-1.68;57.03;99752.97;4872777;29;20061;-91
2022/12/20 23:05:54;;;;;;;31.02;12.15;;;;;;;-1.79;56.74;99720.72;4853658;29;20056;-91
2022/12/20 23:08:21;;;;;;;28.80;12.63;;;;;;;-1.42;56.85;99775.19;4840515;29;20044;-91
2022/12/20 23:16:44;;;;;;;26.33;12.25;;;;;;;-1.22;56.94;99807.16;4870643;29;20041;-90
2022/12/20 23:19:10;;;;;;;33.20;12.80;;;;;;;-1.75;56.54;99713.91;4845790;29;20037;-89
2022/12/20 23:24:21;;;;;;;35.40;13.35;;;;;;;-1.52;56.59;99748.09;4854680;29;20044;-90
2022/12/20 23:26:47;;;;;;;37.40;13.68;;;;;;;-1.35;56.64;99767.88;4839623;29;20188;-90
2022/12/20 23:29:13;;;;;;;35.33;13.55;;;;;;;-1.18;56.52;99797.59;4854375;29;20064;-89
2022/12/20 23:31:39;;;;;;;39.45;14.50;;;;;;;-1.31;56.73;99773.63;4854212;29;20068;-90
2022/12/20 23:34:06;;;;;;;44.90;15.45;;;;;;;-1.48;56.93;99747.41;4877672;29;20067;-91
2022/12/20 23:36:32;;;;;;;38.83;15.48;;;;;;;-1.49;56.52;99744.94;4858336;29;20152;-91
2022/12/20 23:39:00;;;;;;;46.08;16.90;;;;;;;-1.12;56.54;99795.91;4846709;29;20044;-89
2022/12/20 23:41:27;;;;;;;43.05;14.98;;;;;;;-1.34;56.35;99763.34;4859627;29;20080;-90
2022/12/20 23:43:53;;;;;;;48.00;16.33;;;;;;;-1.37;56.52;99751.19;4858835;29;20048;-92
2022/12/20 23:46:20;;;;;;;43.85;16.23;;;;;;;-1.30;56.45;99765.34;4856029;29;20053;-90
2022/12/20 23:48:46;;;;;;;;;;;;;;;-1.06;56.64;99786.94;4856973;29;20506;-92
2022/12/20 23:51:12;;;;;;;41.22;15.10;;;;;;;-1.34;56.72;99747.25;4873850;29;19977;-93
2022/12/20 23:53:38;;;;;;;43.05;16.02;;;;;;;-2.01;56.90;99693.56;4856615;29;20140;-90
2022/12/20 23:56:11;;;;;;;37.25;14.10;;;;;;;-1.51;57.40;99757.75;4872608;29;20036;-91
2022/12/20 23:58:37;;;;;;;40.42;15.93;;;;;;;-1.53;57.42;99751.78;4863321;29;20073;-90
